< < Back
Terminal Aerodrome Forecast


Current Version              Previous Versions:   1  2  3  4  5  6  7  8  9  

Terminal Aerodrome Forecast

133
FTUS42 KTAE 182337
TAFVLD
TAF
KVLD 182337Z 1900/1924 00000KT P6SM OVC250
     FM190600 00000KT 6SM BR VCSH OVC015
     FM191300 20009KT 6SM -RA SCT004 BKN020 OVC150
     FM191600 20008KT 3SM TSRA OVC020CB=

Latest METAR

910
SAUS70 KWBC 190300 RRE
MTRVLD
METAR KVLD 190253Z AUTO 17003KT 7SM CLR 22/22 A2996 RMK AO2 SLP150
T02170217 50012 TSNO


USA.gov is the U.S. government's official web portal to all federal, state and local government web resources and services.